Time;durP1;ratioP1;P1;durP2;ratioP2;P2;SDS_P1;SDS_P2;PMS_P1;PMS_P2;Temp;Humidity;BMP_temperature;BMP_pressure;BME280_temperature;BME280_humidity;BME280_pressure;Samples;Min_cycle;Max_cycle;Signal;HPM_P1;HPM_P2
2022/07/15 00:01:46;;;;;;;1.90;0.60;;;;;;;15.58;48.30;101288.06;4878127;29;20040;-71
2022/07/15 00:04:12;;;;;;;1.00;0.55;;;;;;;15.59;48.07;101289.72;4888781;29;20044;-72
2022/07/15 00:06:37;;;;;;;0.40;0.40;;;;;;;15.54;48.57;101288.63;4900126;29;20147;-72
2022/07/15 00:09:03;;;;;;;0.85;0.40;;;;;;;15.46;48.58;101286.44;4881149;29;20107;-71
2022/07/15 00:11:28;;;;;;;1.27;0.35;;;;;;;15.41;48.31;101288.38;4883148;29;20425;-70
2022/07/15 00:13:53;;;;;;;0.47;0.30;;;;;;;15.33;48.29;101281.47;4900044;29;20033;-72
2022/07/15 00:16:19;;;;;;;0.80;0.20;;;;;;;15.28;48.50;101274.06;4880761;29;20036;-71
2022/07/15 00:18:45;;;;;;;0.90;0.32;;;;;;;15.26;48.43;101275.41;4887331;29;20049;-71
2022/07/15 00:21:10;;;;;;;0.20;0.20;;;;;;;15.19;49.03;101276.53;4899012;29;20049;-71
2022/07/15 00:23:36;;;;;;;0.43;0.40;;;;;;;15.14;49.13;101273.81;4883536;29;20028;-72
2022/07/15 00:26:01;;;;;;;0.20;0.20;;;;;;;15.08;48.60;101268.56;4900830;29;20070;-71
2022/07/15 00:28:28;;;;;;;0.30;0.20;;;;;;;15.00;49.47;101278.19;4900487;29;20040;-70
2022/07/15 00:30:54;;;;;;;1.00;0.60;;;;;;;14.97;49.43;101265.00;4882767;29;20096;-72
2022/07/15 00:33:19;;;;;;;0.38;0.38;;;;;;;14.98;49.78;101269.38;4903432;29;20033;-71
2022/07/15 00:35:45;;;;;;;0.73;0.40;;;;;;;14.94;49.40;101269.09;4854292;29;20502;-71
2022/07/15 00:38:10;;;;;;;0.95;0.47;;;;;;;14.93;49.76;101272.97;4879965;29;20133;-71
2022/07/15 00:40:40;;;;;;;0.22;0.20;;;;;;;14.93;49.63;101280.41;4897875;29;20052;-71
2022/07/15 00:43:06;;;;;;;0.40;0.30;;;;;;;14.90;49.54;101289.22;4884975;29;20072;-73
2022/07/15 00:45:31;;;;;;;0.65;0.30;;;;;;;14.86;49.85;101291.69;4882612;29;20084;-72
2022/07/15 00:47:57;;;;;;;0.32;0.20;;;;;;;14.76;50.12;101287.00;4883385;29;20376;-71
2022/07/15 00:50:26;;;;;;;0.40;0.30;;;;;;;14.66;49.96;101284.22;4905278;29;20044;-73
2022/07/15 00:53:05;;;;;;;0.22;0.22;;;;;;;14.53;50.16;101280.03;4905045;29;20051;-72
2022/07/15 00:55:32;;;;;;;0.32;0.30;;;;;;;14.45;50.44;101289.63;4901026;29;20028;-73
2022/07/15 00:58:03;;;;;;;1.52;0.40;;;;;;;14.31;51.03;101280.25;4884672;29;20131;-73
2022/07/15 01:00:29;;;;;;;0.70;0.40;;;;;;;14.24;51.28;101282.44;4885268;29;20043;-71
2022/07/15 01:02:54;;;;;;;1.17;0.45;;;;;;;14.18;51.51;101286.25;4896151;29;20025;-71
2022/07/15 01:05:21;;;;;;;0.35;0.30;;;;;;;14.08;51.63;101285.13;4880562;29;20066;-71
2022/07/15 01:07:51;;;;;;;0.38;0.38;;;;;;;13.99;51.68;101285.88;4881307;29;20088;-69
2022/07/15 01:10:21;;;;;;;1.13;0.40;;;;;;;13.89;52.34;101286.69;4903413;29;20046;-70
2022/07/15 01:12:49;;;;;;;0.93;0.50;;;;;;;13.76;52.91;101288.81;4904276;29;20087;-70
2022/07/15 01:15:15;;;;;;;1.35;0.55;;;;;;;13.69;53.90;101288.22;4899580;29;20036;-69
2022/07/15 01:17:41;;;;;;;0.55;0.43;;;;;;;13.68;53.37;101292.06;4899546;29;20678;-70
2022/07/15 01:20:07;;;;;;;4.60;0.57;;;;;;;13.58;53.76;101298.34;4882121;29;20044;-70
2022/07/15 01:22:33;;;;;;;0.60;0.40;;;;;;;13.49;53.88;101290.84;4881492;29;20075;-71
2022/07/15 01:24:59;;;;;;;1.02;0.40;;;;;;;13.46;54.05;101296.88;4881684;29;20707;-72
2022/07/15 01:27:25;;;;;;;0.45;0.30;;;;;;;13.36;54.51;101295.72;4889070;29;20033;-71
2022/07/15 01:29:51;;;;;;;1.10;0.60;;;;;;;13.32;55.16;101297.28;4897824;29;20084;-71
2022/07/15 01:32:17;;;;;;;1.08;0.40;;;;;;;13.32;55.14;101300.03;4863182;29;20139;-71
2022/07/15 01:34:42;;;;;;;0.95;0.60;;;;;;;13.29;55.81;101295.06;4861132;29;20021;-71
2022/07/15 01:37:08;;;;;;;1.48;0.57;;;;;;;13.25;55.68;101299.44;4897027;29;20032;-72
2022/07/15 01:39:34;;;;;;;1.02;0.50;;;;;;;13.20;55.64;101304.88;4895020;29;20035;-70
2022/07/15 01:41:59;;;;;;;0.55;0.40;;;;;;;13.14;56.27;101301.28;4886611;29;20039;-72
2022/07/15 01:44:25;;;;;;;0.40;0.40;;;;;;;13.13;56.09;101307.00;4878300;29;20044;-72
2022/07/15 01:46:50;;;;;;;2.90;0.60;;;;;;;13.07;56.30;101303.41;4884290;29;20044;-73
2022/07/15 01:49:21;;;;;;;0.73;0.35;;;;;;;13.02;56.84;101300.59;4885865;29;20041;-72
2022/07/15 01:51:48;;;;;;;2.30;0.50;;;;;;;13.02;56.58;101298.69;4871704;29;20048;-72
2022/07/15 01:54:13;;;;;;;1.35;0.47;;;;;;;13.02;57.41;101301.44;4906325;29;20498;-72
2022/07/15 01:56:39;;;;;;;1.38;0.43;;;;;;;13.03;57.19;101296.78;4900959;29;20036;-73
2022/07/15 01:59:05;;;;;;;1.35;0.50;;;;;;;13.00;56.82;101303.63;4898268;29;20043;-72
2022/07/15 02:01:30;;;;;;;1.35;0.57;;;;;;;12.95;56.94;101300.00;4897135;29;20033;-71
2022/07/15 02:03:56;;;;;;;0.80;0.45;;;;;;;12.95;56.86;101302.75;4882600;29;20483;-72
2022/07/15 02:06:22;;;;;;;1.92;0.80;;;;;;;12.92;56.67;101306.81;4864490;29;20305;-73
2022/07/15 02:08:47;;;;;;;0.93;0.50;;;;;;;12.85;57.41;101303.47;4867228;29;20180;-71
2022/07/15 02:11:13;;;;;;;1.10;0.63;;;;;;;12.81;57.80;101294.13;4882254;29;20064;-71
2022/07/15 02:13:38;;;;;;;3.38;0.40;;;;;;;12.73;57.83;101293.50;4899937;29;20032;-70
2022/07/15 02:16:09;;;;;;;0.52;0.35;;;;;;;12.70;57.72;101294.00;4846235;29;20115;-73
2022/07/15 02:18:38;;;;;;;1.70;0.38;;;;;;;12.65;57.70;101282.97;4859806;29;20530;-73
2022/07/15 02:21:03;;;;;;;1.15;0.50;;;;;;;12.66;57.76;101297.50;4891861;29;20052;-71
2022/07/15 02:23:31;;;;;;;2.95;0.40;;;;;;;12.63;57.83;101292.53;4894211;29;20033;-70
2022/07/15 02:25:56;;;;;;;0.43;0.43;;;;;;;12.56;58.01;101290.03;4876188;29;20072;-71
2022/07/15 02:28:23;;;;;;;0.52;0.50;;;;;;;12.62;58.60;101291.72;4878165;29;20043;-71
2022/07/15 02:30:48;;;;;;;1.55;0.40;;;;;;;12.58;57.90;101293.31;4893492;29;20466;-71
2022/07/15 02:33:14;;;;;;;0.90;0.50;;;;;;;12.58;58.00;101296.06;4874874;29;20032;-71
2022/07/15 02:35:40;;;;;;;1.60;0.55;;;;;;;12.53;58.82;101288.63;4898075;29;20563;-72
2022/07/15 02:38:06;;;;;;;0.40;0.38;;;;;;;12.51;58.14;101300.94;4897636;29;20040;-70
2022/07/15 02:40:32;;;;;;;4.28;0.50;;;;;;;12.47;58.03;101294.28;4894042;29;20043;-70
2022/07/15 02:43:01;;;;;;;0.75;0.45;;;;;;;12.46;58.46;101300.88;4883122;29;20032;-70
2022/07/15 02:45:29;;;;;;;3.30;0.40;;;;;;;12.44;58.18;101300.28;4881396;29;20025;-70
2022/07/15 02:47:55;;;;;;;0.40;0.35;;;;;;;12.37;58.52;101290.34;4897862;29;20036;-71
2022/07/15 02:50:21;;;;;;;1.30;0.43;;;;;;;12.37;58.52;101304.06;4877839;29;20032;-69
2022/07/15 02:52:47;;;;;;;0.57;0.30;;;;;;;12.37;58.67;101306.81;4899623;29;20035;-69
2022/07/15 02:55:14;;;;;;;0.80;0.50;;;;;;;12.34;58.73;101299.09;4881665;29;20384;-70
2022/07/15 02:57:40;;;;;;;0.30;0.30;;;;;;;12.32;59.09;101297.69;4892525;29;20036;-71
2022/07/15 03:00:08;;;;;;;0.63;0.40;;;;;;;12.32;59.25;101298.50;4866760;29;20037;-71
2022/07/15 03:02:33;;;;;;;0.43;0.30;;;;;;;12.31;59.07;101302.38;4874435;29;20047;-69
2022/07/15 03:05:00;;;;;;;0.40;0.40;;;;;;;12.30;58.93;101297.97;4900411;29;20033;-71
2022/07/15 03:07:26;;;;;;;1.58;0.50;;;;;;;12.30;59.61;101297.97;4879737;29;20380;-70
2022/07/15 03:09:51;;;;;;;0.70;0.45;;;;;;;12.30;59.19;101303.44;4900116;29;20039;-69
2022/07/15 03:12:17;;;;;;;0.75;0.50;;;;;;;12.26;58.87;101302.28;4882075;29;20032;-71
2022/07/15 03:14:42;;;;;;;0.52;0.40;;;;;;;12.27;59.83;101305.88;4866615;29;20039;-70
2022/07/15 03:17:08;;;;;;;0.35;0.32;;;;;;;12.23;59.60;101300.06;4894245;29;20073;-71
2022/07/15 03:19:36;;;;;;;3.00;0.60;;;;;;;12.22;59.78;101303.88;4879324;29;20040;-71
2022/07/15 03:22:02;;;;;;;0.85;0.40;;;;;;;12.20;59.86;101306.06;4897884;29;20044;-71
2022/07/15 03:24:27;;;;;;;0.40;0.40;;;;;;;12.18;59.71;101300.00;4894584;29;20321;-70
2022/07/15 03:26:53;;;;;;;4.13;0.50;;;;;;;12.17;59.63;101295.59;4897503;29;20065;-70
2022/07/15 03:29:19;;;;;;;0.40;0.28;;;;;;;12.16;59.76;101293.94;4873789;29;20045;-69
2022/07/15 03:31:44;;;;;;;0.70;0.40;;;;;;;12.16;59.74;101293.94;4874390;29;20031;-69
2022/07/15 03:34:10;;;;;;;1.52;0.40;;;;;;;12.15;59.83;101295.00;4864830;29;20040;-70
2022/07/15 03:36:37;;;;;;;0.25;0.25;;;;;;;12.14;59.73;101296.13;4865769;29;20033;-70
2022/07/15 03:39:06;;;;;;;0.55;0.30;;;;;;;12.14;59.46;101296.13;4881103;29;20040;-70
2022/07/15 03:41:33;;;;;;;0.82;0.45;;;;;;;12.13;60.19;101295.28;4886690;29;20043;-70
2022/07/15 03:44:00;;;;;;;0.43;0.30;;;;;;;12.12;59.59;101287.31;4897867;29;20044;-71
2022/07/15 03:46:26;;;;;;;0.98;0.40;;;;;;;12.08;60.34;101283.44;4881848;29;20235;-71
2022/07/15 03:48:52;;;;;;;0.90;0.47;;;;;;;12.02;60.30;101280.63;4896784;29;20091;-70
2022/07/15 03:51:17;;;;;;;0.52;0.40;;;;;;;11.98;60.81;101286.88;4885307;29;20112;-69
2022/07/15 03:53:43;;;;;;;0.80;0.43;;;;;;;11.95;60.93;101281.91;4875120;29;20057;-70
2022/07/15 03:56:09;;;;;;;0.73;0.40;;;;;;;11.89;60.90;101278.22;4880258;29;20025;-70
2022/07/15 03:58:34;;;;;;;0.73;0.50;;;;;;;11.89;60.81;101280.97;4882101;29;20037;-71
2022/07/15 04:01:00;;;;;;;0.65;0.40;;;;;;;11.89;61.17;101278.22;4881599;29;20056;-70
2022/07/15 04:03:25;;;;;;;0.60;0.40;;;;;;;11.90;61.33;101273.56;4879694;29;20115;-69
2022/07/15 04:05:51;;;;;;;1.58;0.70;;;;;;;11.88;61.55;101276.56;4880617;29;20037;-70
2022/07/15 04:08:16;;;;;;;1.50;0.40;;;;;;;11.85;61.57;101275.16;4896444;29;20037;-70
2022/07/15 04:10:42;;;;;;;0.68;0.30;;;;;;;11.83;61.81;101273.78;4897211;29;20059;-71
2022/07/15 04:13:07;;;;;;;2.05;0.52;;;;;;;11.81;61.67;101273.19;4866448;29;20686;-70
2022/07/15 04:15:32;;;;;;;0.40;0.40;;;;;;;11.78;61.35;101266.28;4897631;29;20029;-70
2022/07/15 04:17:58;;;;;;;0.38;0.28;;;;;;;11.82;61.24;101277.59;4880607;29;20076;-69
2022/07/15 04:20:25;;;;;;;1.20;0.52;;;;;;;11.84;61.22;101278.16;4864416;29;20041;-70
2022/07/15 04:22:50;;;;;;;0.20;0.20;;;;;;;11.87;61.38;101274.91;4899303;29;20107;-70
2022/07/15 04:25:18;;;;;;;1.02;0.40;;;;;;;11.92;61.59;101272.25;4899469;29;20075;-70
2022/07/15 04:27:44;;;;;;;1.52;0.40;;;;;;;11.95;61.24;101277.25;4900289;29;20020;-70
2022/07/15 04:30:12;;;;;;;3.20;0.60;;;;;;;12.02;61.32;101277.06;4863439;29;20036;-70
2022/07/15 04:32:37;;;;;;;1.17;0.50;;;;;;;12.07;61.26;101273.56;4902628;29;20028;-69
2022/07/15 04:35:03;;;;;;;0.70;0.52;;;;;;;12.08;61.11;101278.78;4878584;29;20029;-70
2022/07/15 04:37:29;;;;;;;2.45;0.50;;;;;;;12.10;61.44;101282.06;4883448;29;20043;-70
2022/07/15 04:39:55;;;;;;;1.38;0.50;;;;;;;12.11;61.20;101282.94;4880698;29;20029;-71
2022/07/15 04:42:21;;;;;;;0.60;0.40;;;;;;;12.05;61.34;101274.63;4884912;29;20051;-72
2022/07/15 04:44:47;;;;;;;0.63;0.40;;;;;;;11.98;61.35;101273.97;4903436;29;20127;-73
2022/07/15 04:47:13;;;;;;;1.10;0.38;;;;;;;11.92;61.57;101282.38;4887092;29;20060;-73
2022/07/15 04:52:24;;;;;;;0.90;0.30;;;;;;;11.86;61.31;101278.75;4884690;29;20088;-70
2022/07/15 04:54:50;;;;;;;0.60;0.40;;;;;;;11.88;61.76;101276.56;4871497;29;20626;-71
2022/07/15 04:57:16;;;;;;;0.73;0.57;;;;;;;11.87;62.40;101274.91;4885281;29;20036;-71
2022/07/15 04:59:41;;;;;;;1.20;0.60;;;;;;;11.93;62.29;101279.41;4871102;29;20109;-72
2022/07/15 05:02:07;;;;;;;1.48;0.68;;;;;;;11.95;62.36;101285.47;4904293;29;20037;-71
2022/07/15 05:04:32;;;;;;;2.15;0.60;;;;;;;11.98;62.67;101275.91;4870862;29;20077;-70
2022/07/15 05:06:57;;;;;;;2.00;0.77;;;;;;;12.00;62.79;101280.06;4882416;29;20063;-71
2022/07/15 05:09:23;;;;;;;0.82;0.60;;;;;;;12.06;62.32;101283.66;4884815;29;20494;-69
2022/07/15 05:11:48;;;;;;;4.43;0.60;;;;;;;12.12;62.58;101287.31;4881872;29;20116;-71
2022/07/15 05:14:14;;;;;;;0.90;0.50;;;;;;;12.19;62.41;101282.47;4882301;29;20520;-71
2022/07/15 05:16:39;;;;;;;1.05;0.60;;;;;;;12.26;62.31;101288.56;4885847;29;20401;-70
2022/07/15 05:19:05;;;;;;;2.55;0.82;;;;;;;12.28;61.98;101291.06;4873035;29;20057;-74
2022/07/15 05:21:31;;;;;;;2.42;0.70;;;;;;;12.28;62.25;101296.53;4881062;29;20045;-70
2022/07/15 05:23:57;;;;;;;1.38;0.75;;;;;;;12.33;62.44;101305.66;4882307;29;20059;-72
2022/07/15 05:26:23;;;;;;;3.17;0.85;;;;;;;12.39;63.16;101310.13;4905118;29;20084;-71
2022/07/15 05:28:49;;;;;;;3.85;0.95;;;;;;;12.42;62.55;101308.78;4886235;29;20028;-72
2022/07/15 05:31:14;;;;;;;3.95;1.00;;;;;;;12.47;63.06;101317.09;4900332;29;20523;-72
2022/07/15 05:33:40;;;;;;;1.80;1.13;;;;;;;12.53;62.84;101304.25;4867073;29;20021;-70
2022/07/15 05:36:11;;;;;;;3.92;1.27;;;;;;;12.65;62.88;101307.66;4880072;29;20130;-71
2022/07/15 05:38:37;;;;;;;2.70;0.98;;;;;;;12.74;62.22;101306.09;4902904;29;20033;-72
2022/07/15 05:41:03;;;;;;;2.85;0.93;;;;;;;12.86;61.74;101313.38;4887181;29;20043;-72
2022/07/15 05:43:28;;;;;;;4.55;0.98;;;;;;;12.93;61.45;101319.47;4870728;29;20696;-72
2022/07/15 05:45:53;;;;;;;1.75;1.00;;;;;;;13.00;61.33;101316.53;4901403;29;20052;-71
2022/07/15 05:48:19;;;;;;;1.55;0.98;;;;;;;13.11;61.82;101323.75;4884245;29;20044;-70
2022/07/15 05:50:44;;;;;;;3.47;1.25;;;;;;;13.18;61.40;101318.03;4901064;29;20046;-71
2022/07/15 05:53:10;;;;;;;1.48;0.77;;;;;;;13.28;61.28;101320.88;4876240;29;20024;-70
2022/07/15 05:55:35;;;;;;;1.75;0.77;;;;;;;13.33;61.19;101318.19;4901179;29;20547;-71
2022/07/15 05:58:05;;;;;;;0.82;0.63;;;;;;;13.42;60.69;101313.88;4884162;29;20039;-71
2022/07/15 06:00:30;;;;;;;2.55;0.88;;;;;;;13.48;60.69;101313.91;4884579;29;20029;-71
2022/07/15 06:02:56;;;;;;;2.10;0.80;;;;;;;13.51;61.31;101313.41;4865326;29;20065;-72
2022/07/15 06:05:21;;;;;;;5.18;0.68;;;;;;;13.54;60.57;101313.69;4898998;29;20042;-71
2022/07/15 06:07:46;;;;;;;1.67;0.73;;;;;;;13.63;60.35;101319.50;4883432;29;20063;-71
2022/07/15 06:10:12;;;;;;;1.10;0.60;;;;;;;13.71;60.28;101318.19;4878622;29;20040;-71
2022/07/15 06:12:37;;;;;;;2.03;0.70;;;;;;;13.78;60.42;101319.63;4900356;29;20116;-70
2022/07/15 06:15:03;;;;;;;2.15;0.60;;;;;;;13.90;60.51;101322.16;4901927;29;20468;-69
2022/07/15 06:17:30;;;;;;;3.15;0.77;;;;;;;13.94;59.93;101316.94;4895652;29;21624;-71
2022/07/15 06:19:55;;;;;;;1.35;0.50;;;;;;;14.08;59.33;101320.06;4887709;29;20053;-70
2022/07/15 06:22:21;;;;;;;3.20;0.70;;;;;;;14.14;59.00;101311.53;4900489;29;20024;-72
2022/07/15 06:24:46;;;;;;;1.85;0.50;;;;;;;14.19;59.28;101301.66;4899776;29;20052;-73
2022/07/15 06:27:12;;;;;;;4.05;0.73;;;;;;;14.20;58.80;101308.81;4870929;29;20103;-70
2022/07/15 06:29:37;;;;;;;0.80;0.60;;;;;;;14.26;58.67;101310.50;4880182;29;20036;-70
2022/07/15 06:32:03;;;;;;;0.73;0.45;;;;;;;14.28;58.28;101316.53;4894718;29;20021;-71
2022/07/15 06:34:31;;;;;;;3.42;0.60;;;;;;;14.32;58.74;101318.50;4897688;29;20052;-71
2022/07/15 06:36:56;;;;;;;2.78;0.50;;;;;;;14.40;58.18;101325.41;4891152;29;20375;-71
2022/07/15 06:39:22;;;;;;;1.50;0.73;;;;;;;14.46;58.20;101329.00;4900121;29;20048;-71
2022/07/15 06:41:48;;;;;;;5.05;1.00;;;;;;;14.51;57.86;101323.50;4883495;29;20047;-73
2022/07/15 06:44:13;;;;;;;1.63;0.60;;;;;;;14.51;57.45;101328.19;4899127;29;20047;-73
2022/07/15 06:46:39;;;;;;;2.28;0.50;;;;;;;14.57;58.17;101329.84;4884660;29;20025;-74
2022/07/15 06:49:04;;;;;;;1.90;0.80;;;;;;;14.65;57.39;101321.13;4899265;29;20119;-72
2022/07/15 06:51:29;;;;;;;2.88;0.70;;;;;;;14.75;57.40;101323.88;4864140;29;20106;-73
2022/07/15 06:53:55;;;;;;;1.63;0.50;;;;;;;14.82;57.27;101321.69;4882619;29;20037;-72
2022/07/15 06:56:20;;;;;;;5.15;0.77;;;;;;;14.92;56.70;101317.28;4877086;29;20032;-72
2022/07/15 06:58:46;;;;;;;1.30;0.43;;;;;;;15.03;56.20;101315.41;4854271;29;20040;-72
2022/07/15 07:01:11;;;;;;;4.93;0.52;;;;;;;15.21;56.38;101314.00;4866962;29;20063;-74
2022/07/15 07:03:38;;;;;;;0.50;0.40;;;;;;;15.39;55.90;101312.63;4883669;29;20060;-73
2022/07/15 07:06:05;;;;;;;1.02;0.30;;;;;;;15.60;55.72;101305.16;4899498;29;20108;-73
2022/07/15 07:08:34;;;;;;;0.70;0.40;;;;;;;15.82;55.31;101299.34;4882272;29;20083;-77
2022/07/15 07:11:00;;;;;;;3.72;0.55;;;;;;;15.98;54.43;101311.16;4874933;29;20033;-72
2022/07/15 07:13:25;;;;;;;0.85;0.45;;;;;;;16.07;54.20;101317.75;4882581;29;20056;-72
2022/07/15 07:15:50;;;;;;;2.45;0.50;;;;;;;16.12;53.80;101309.47;4896209;29;20036;-73
2022/07/15 07:18:16;;;;;;;3.10;0.60;;;;;;;16.26;53.93;101309.66;4876145;29;20049;-73
2022/07/15 07:20:43;;;;;;;1.15;0.52;;;;;;;16.48;54.06;101305.69;4892858;29;20040;-73
2022/07/15 07:23:10;;;;;;;1.45;0.52;;;;;;;16.70;53.54;101310.81;4894907;29;20096;-73
2022/07/15 07:25:36;;;;;;;1.33;0.30;;;;;;;16.88;53.08;101306.56;4894111;29;20028;-71
2022/07/15 07:28:03;;;;;;;0.80;0.40;;;;;;;17.04;52.93;101307.28;4866485;29;20092;-73
2022/07/15 07:30:29;;;;;;;2.83;0.80;;;;;;;17.17;52.02;101303.91;4881790;29;20029;-72
2022/07/15 07:32:55;;;;;;;1.10;0.75;;;;;;;17.36;52.34;101300.38;4895521;29;20029;-73
2022/07/15 07:35:20;;;;;;;0.98;0.47;;;;;;;17.55;51.66;101304.09;4895554;29;20099;-72
2022/07/15 07:37:46;;;;;;;2.45;0.40;;;;;;;17.71;51.77;101312.22;4897460;29;20044;-72
2022/07/15 07:40:11;;;;;;;1.13;0.57;;;;;;;17.81;51.32;101309.34;4895583;29;20357;-72
2022/07/15 07:42:38;;;;;;;0.55;0.35;;;;;;;17.90;51.15;101307.63;4881922;29;20840;-72
2022/07/15 07:45:05;;;;;;;0.95;0.38;;;;;;;18.09;50.71;101304.91;4881238;29;20035;-73
2022/07/15 07:47:37;;;;;;;1.08;0.40;;;;;;;18.75;49.44;101309.81;4871168;29;20369;-73
2022/07/15 07:50:04;;;;;;;1.25;0.30;;;;;;;19.04;48.67;101311.63;4895951;29;20468;-70
2022/07/15 07:52:31;;;;;;;4.05;0.38;;;;;;;19.23;47.47;101304.13;4871813;29;20088;-71
2022/07/15 07:54:58;;;;;;;1.17;0.65;;;;;;;19.38;46.71;101299.41;4876736;29;20127;-72
2022/07/15 07:57:23;;;;;;;1.00;0.32;;;;;;;19.50;46.52;101308.91;4890286;29;20080;-72
2022/07/15 07:59:49;;;;;;;1.48;0.40;;;;;;;19.80;46.48;101294.78;4900415;29;20040;-70
2022/07/15 08:02:14;;;;;;;0.40;0.22;;;;;;;20.12;46.21;101306.94;4868948;29;20032;-70
2022/07/15 08:04:40;;;;;;;0.28;0.28;;;;;;;20.25;45.78;101308.88;4873466;29;20056;-70
2022/07/15 08:07:06;;;;;;;0.45;0.10;;;;;;;20.49;45.57;101305.03;4898828;29;20132;-71
2022/07/15 08:09:32;;;;;;;1.50;0.40;;;;;;;20.70;44.90;101297.91;4889103;29;20054;-70
2022/07/15 08:11:57;;;;;;;0.80;0.20;;;;;;;21.01;44.66;101299.97;4882594;29;20540;-70
2022/07/15 08:14:24;;;;;;;0.30;0.20;;;;;;;21.22;44.26;101299.44;4899353;29;20507;-71
2022/07/15 08:16:50;;;;;;;0.17;0.15;;;;;;;21.38;43.97;101291.53;4880822;29;20047;-71
2022/07/15 08:19:17;;;;;;;0.25;0.20;;;;;;;21.51;43.75;101292.59;4896835;29;20088;-70
2022/07/15 08:21:43;;;;;;;0.65;0.13;;;;;;;21.66;43.43;101288.59;4882014;29;20040;-71
2022/07/15 08:24:10;;;;;;;0.68;0.28;;;;;;;21.87;43.00;101286.06;4882797;29;20038;-71
2022/07/15 08:26:36;;;;;;;1.65;0.20;;;;;;;21.97;41.93;101280.19;4886783;29;20397;-71
2022/07/15 08:29:02;;;;;;;0.68;0.25;;;;;;;22.00;41.70;101265.63;4900526;29;20033;-70
2022/07/15 08:31:27;;;;;;;0.20;0.15;;;;;;;22.06;41.68;101278.25;4877726;29;20413;-70
2022/07/15 08:33:53;;;;;;;0.10;0.10;;;;;;;22.00;41.75;101289.88;4882227;29;20044;-69
2022/07/15 08:36:19;;;;;;;0.28;0.20;;;;;;;22.07;41.12;101279.88;4897415;29;20040;-70
2022/07/15 08:38:46;;;;;;;0.20;0.20;;;;;;;22.05;41.29;101273.84;4900427;29;20403;-70
2022/07/15 08:41:13;;;;;;;0.82;0.20;;;;;;;21.90;40.84;101269.53;4885297;29;20490;-70
2022/07/15 08:43:39;;;;;;;0.50;0.20;;;;;;;21.81;40.78;101271.44;4900559;29;20028;-70
2022/07/15 08:46:06;;;;;;;0.82;0.30;;;;;;;21.82;40.58;101272.28;4899957;29;20036;-71
2022/07/15 08:48:35;;;;;;;0.50;0.30;;;;;;;22.02;40.23;101273.66;4899489;29;20061;-72
2022/07/15 08:51:05;;;;;;;0.95;0.30;;;;;;;22.20;40.38;101266.16;4895679;29;20108;-69
2022/07/15 08:53:31;;;;;;;0.95;0.30;;;;;;;22.01;39.83;101258.91;4900553;29;20025;-70
2022/07/15 08:55:57;;;;;;;0.40;0.20;;;;;;;21.95;40.08;101261.03;4865496;29;20040;-70
2022/07/15 08:58:23;;;;;;;3.00;0.57;;;;;;;21.73;38.50;101270.28;4895700;29;20039;-69
2022/07/15 09:00:49;;;;;;;0.40;0.30;;;;;;;21.23;39.08;101267.69;4866605;29;20124;-70
2022/07/15 09:03:15;;;;;;;0.60;0.40;;;;;;;21.04;40.17;101260.41;4898776;29;20116;-70
2022/07/15 09:05:41;;;;;;;1.27;0.30;;;;;;;21.30;40.24;101267.25;4878513;29;20097;-69
2022/07/15 09:08:10;;;;;;;0.15;0.15;;;;;;;21.61;39.93;101267.28;4879063;29;20024;-70
2022/07/15 09:10:56;;;;;;;0.50;0.30;;;;;;;22.01;39.62;101272.03;4880314;29;20032;-68
2022/07/15 09:13:22;;;;;;;1.05;0.20;;;;;;;22.24;38.50;101267.13;4899839;29;20028;-71
2022/07/15 09:15:49;;;;;;;1.27;0.20;;;;;;;22.38;38.71;101267.84;4898485;29;20039;-71
2022/07/15 09:18:20;;;;;;;0.20;0.20;;;;;;;22.58;38.20;101268.38;4896969;29;20053;-70
2022/07/15 09:20:47;;;;;;;0.63;0.30;;;;;;;22.72;37.54;101271.81;4900248;29;20036;-72
2022/07/15 09:23:20;;;;;;;0.75;0.30;;;;;;;22.75;36.36;101276.75;4900931;29;20032;-71
2022/07/15 09:25:47;;;;;;;0.65;0.20;;;;;;;22.56;35.36;101263.13;4885215;29;20419;-71
2022/07/15 09:28:13;;;;;;;0.70;0.20;;;;;;;22.37;34.94;101263.44;4898339;29;20033;-70
2022/07/15 09:33:34;;;;;;;0.45;0.22;;;;;;;21.92;35.60;101249.72;4884184;29;20089;-70
2022/07/15 09:36:04;;;;;;;0.52;0.20;;;;;;;22.08;35.93;101253.69;4894017;29;20044;-70
2022/07/15 09:38:54;;;;;;;0.28;0.15;;;;;;;22.42;36.07;101256.88;4883013;29;20033;-70
2022/07/15 09:41:27;;;;;;;0.47;0.20;;;;;;;22.77;35.65;101245.75;4892833;29;20131;-70
2022/07/15 09:43:56;;;;;;;1.38;0.25;;;;;;;22.82;34.70;101251.97;4899196;29;20051;-72
2022/07/15 09:46:26;;;;;;;0.55;0.20;;;;;;;22.82;35.13;101248.34;4897792;29;20131;-71
2022/07/15 09:48:52;;;;;;;4.78;0.38;;;;;;;22.92;34.27;101248.00;4900249;29;20032;-70
2022/07/15 09:51:19;;;;;;;0.40;0.30;;;;;;;22.83;34.03;101250.81;4897129;29;20035;-70
2022/07/15 09:53:45;;;;;;;0.30;0.30;;;;;;;22.82;34.30;101254.75;4882039;29;20032;-70
2022/07/15 09:56:21;;;;;;;0.40;0.20;;;;;;;22.67;34.52;101252.47;4902453;29;20040;-70
2022/07/15 09:58:47;;;;;;;0.20;0.20;;;;;;;22.78;34.92;101253.78;4900941;29;20476;-71
2022/07/15 10:01:12;;;;;;;0.25;0.13;;;;;;;23.12;35.01;101252.09;4881559;29;20051;-69
2022/07/15 10:03:38;;;;;;;0.38;0.35;;;;;;;23.60;34.76;101243.75;4900295;29;20101;-70
2022/07/15 10:06:04;;;;;;;0.50;0.30;;;;;;;24.20;32.80;101251.00;4899349;29;20029;-69
2022/07/15 10:08:33;;;;;;;0.68;0.40;;;;;;;24.64;31.17;101249.91;4900595;29;20487;-70
2022/07/15 10:10:58;;;;;;;0.40;0.30;;;;;;;25.02;30.75;101251.69;4883896;29;20055;-70
2022/07/15 10:13:50;;;;;;;0.68;0.40;;;;;;;25.69;30.77;101260.00;4898846;29;20052;-70
2022/07/15 10:16:25;;;;;;;5.43;0.32;;;;;;;26.34;29.38;101260.06;4886472;29;20048;-71
2022/07/15 10:19:05;;;;;;;2.60;0.50;;;;;;;26.50;28.56;101256.53;4873497;29;20591;-70
2022/07/15 10:21:43;;;;;;;1.05;0.30;;;;;;;26.54;28.88;101252.66;4894919;29;20124;-70
2022/07/15 10:24:23;;;;;;;0.32;0.25;;;;;;;26.87;29.07;101262.88;4880625;29;20033;-71
2022/07/15 10:27:13;;;;;;;0.20;0.20;;;;;;;27.22;28.00;101253.81;4897846;29;20036;-71
2022/07/15 10:29:40;;;;;;;0.45;0.30;;;;;;;26.90;26.89;101255.75;4878944;29;20032;-72
2022/07/15 10:32:05;;;;;;;0.63;0.20;;;;;;;26.51;27.86;101247.78;4891142;29;20020;-70
2022/07/15 10:34:32;;;;;;;0.65;0.28;;;;;;;26.24;28.19;101255.78;4869385;29;21115;-70
2022/07/15 10:37:01;;;;;;;0.85;0.47;;;;;;;26.01;28.24;101243.47;4896553;29;20047;-70
2022/07/15 10:39:48;;;;;;;0.65;0.20;;;;;;;26.08;28.95;101235.25;4898940;29;20040;-70
2022/07/15 10:42:13;;;;;;;0.93;0.30;;;;;;;26.07;28.91;101244.84;4897390;29;20066;-71
2022/07/15 10:44:58;;;;;;;0.20;0.20;;;;;;;26.32;28.75;101245.59;4880932;29;20024;-73
2022/07/15 10:47:23;;;;;;;0.65;0.20;;;;;;;26.70;28.80;101243.53;4898094;29;20022;-70
2022/07/15 10:49:50;;;;;;;0.32;0.20;;;;;;;27.08;29.33;101236.56;4874265;29;20042;-70
2022/07/15 10:52:19;;;;;;;0.85;0.40;;;;;;;27.18;27.62;101230.44;4896111;29;20017;-72
2022/07/15 10:54:49;;;;;;;0.63;0.30;;;;;;;26.97;26.99;101241.88;4894459;29;20024;-71
2022/07/15 10:57:19;;;;;;;0.30;0.17;;;;;;;27.09;27.02;101238.22;4892823;29;20101;-73
2022/07/15 10:59:48;;;;;;;2.55;0.30;;;;;;;27.19;27.46;101234.88;4891329;29;20112;-71
2022/07/15 11:02:16;;;;;;;0.35;0.22;;;;;;;27.40;28.17;101231.03;4889241;29;20047;-71
2022/07/15 11:04:42;;;;;;;1.05;0.40;;;;;;;27.74;28.42;101225.84;4891965;29;20372;-72
2022/07/15 11:07:09;;;;;;;0.32;0.10;;;;;;;28.13;28.70;101232.41;4888660;29;20041;-71
2022/07/15 11:10:02;;;;;;;0.52;0.30;;;;;;;28.50;27.13;101219.94;4893825;29;20426;-71
2022/07/15 11:12:30;;;;;;;2.95;0.40;;;;;;;28.59;26.60;101223.34;4891879;29;20072;-71
2022/07/15 11:14:57;;;;;;;0.90;0.50;;;;;;;29.10;26.94;101229.97;4891295;29;20332;-70
2022/07/15 11:17:39;;;;;;;0.10;0.10;;;;;;;29.96;26.22;101225.81;4889878;29;20395;-72
2022/07/15 11:20:11;;;;;;;0.93;0.30;;;;;;;31.06;24.29;101229.63;4880151;29;20063;-71
2022/07/15 11:22:47;;;;;;;1.38;0.30;;;;;;;32.58;23.37;101225.88;4891663;29;20037;-71
2022/07/15 11:25:31;;;;;;;0.20;0.20;;;;;;;34.83;21.48;101223.34;4889151;29;20028;-71
2022/07/15 11:28:01;;;;;;;2.63;0.20;;;;;;;37.15;18.52;101226.22;4873955;29;20064;-70
2022/07/15 11:30:34;;;;;;;0.20;0.20;;;;;;;38.83;14.74;101225.50;4888076;29;20032;-72